LZKZ/KSC METAR and TAF weather

Enter ICAO airport designator
Station Type Date Time Source
LZKZ METAR 2020/11/27 03:00 UTC NOAA

LZKZ 270300Z 24005KT 200V280 9999 OVC009 M01/M03 Q1023


Station Type Date Time Source
LZKZ Decoded METAR 2020/11/27 03:00 UTC NOAA

Kosice, Barca, Slovakia (LZKZ) 48-39-47N 021-14-28E
Nov 26, 2020 - 10:00 PM EST / 2020.11.27 0300 UTC
Wind: from the WSW (240 degrees) at 6 MPH (5 KT) (direction variable):0
Visibility: greater than 7 mile(s):0
Sky conditions: overcast
Temperature: 30 F (-1 C)
Windchill: 23 F (-5 C):1
Dew Point: 26 F (-3 C)
Relative Humidity: 86%
Pressure (altimeter): 30.21 in. Hg (1023 hPa)
ob: LZKZ 270300Z 24005KT 200V280 9999 OVC009 M01/M03 Q1023
cycle: 3

Station Type Date Time Source
LZKZ TAF 2020/11/26 18:48 UTC NOAA

TAF LZKZ 261700Z 2618/2718 20005KT 7000 OVC007
BECMG 2618/2620 2500 BR OVC004
BECMG 2623/2701 1200 -SG BR OVC002
TEMPO 2701/2708 VRB02KT 0200 FZFG OVC001
BECMG 2709/2711 2000 BR OVC009
TEMPO 2711/2717 6000 BKN016

Example: see airport list